sensor_id;sensor_type;location;lat;lon;timestamp;pressure;altitude;pressure_sealevel;temperature;humidity
45071;BME280;30836;48.906;9.140;2023-07-28T00:00:53;978.70;;;25.24;49.66
45071;BME280;30836;48.906;9.140;2023-07-28T00:01:53;978.70;;;25.22;49.72
45071;BME280;30836;48.906;9.140;2023-07-28T00:02:54;978.68;;;25.20;49.61
45071;BME280;30836;48.906;9.140;2023-07-28T00:03:55;978.70;;;25.18;49.63
45071;BME280;30836;48.906;9.140;2023-07-28T00:04:56;978.72;;;25.14;49.59
45071;BME280;30836;48.906;9.140;2023-07-28T00:05:57;978.76;;;25.09;49.74
45071;BME280;30836;48.906;9.140;2023-07-28T00:06:57;978.78;;;25.06;49.65
45071;BME280;30836;48.906;9.140;2023-07-28T00:07:57;978.78;;;25.03;49.74
45071;BME280;30836;48.906;9.140;2023-07-28T00:08:58;978.80;;;25.01;49.69
45071;BME280;30836;48.906;9.140;2023-07-28T00:09:58;978.76;;;24.99;49.71
45071;BME280;30836;48.906;9.140;2023-07-28T00:10:59;978.76;;;24.98;49.67
45071;BME280;30836;48.906;9.140;2023-07-28T00:11:59;978.74;;;24.98;49.72
45071;BME280;30836;48.906;9.140;2023-07-28T00:13:01;978.74;;;24.95;49.94
45071;BME280;30836;48.906;9.140;2023-07-28T00:14:01;978.74;;;24.93;49.96
45071;BME280;30836;48.906;9.140;2023-07-28T00:15:02;978.74;;;24.92;49.99
45071;BME280;30836;48.906;9.140;2023-07-28T00:16:02;978.72;;;24.93;49.87
45071;BME280;30836;48.906;9.140;2023-07-28T00:17:03;978.74;;;24.93;49.88
45071;BME280;30836;48.906;9.140;2023-07-28T00:18:04;978.74;;;24.94;49.89
45071;BME280;30836;48.906;9.140;2023-07-28T00:19:04;978.78;;;24.96;49.74
45071;BME280;30836;48.906;9.140;2023-07-28T00:20:05;978.76;;;24.98;49.63
45071;BME280;30836;48.906;9.140;2023-07-28T00:21:06;978.76;;;24.98;49.70
45071;BME280;30836;48.906;9.140;2023-07-28T00:22:06;978.76;;;24.95;49.89
45071;BME280;30836;48.906;9.140;2023-07-28T00:23:06;978.72;;;24.94;49.91
45071;BME280;30836;48.906;9.140;2023-07-28T00:24:07;978.74;;;24.90;50.32
45071;BME280;30836;48.906;9.140;2023-07-28T00:25:08;978.72;;;24.86;50.29
45071;BME280;30836;48.906;9.140;2023-07-28T00:26:08;978.72;;;24.84;50.23
45071;BME280;30836;48.906;9.140;2023-07-28T00:27:08;978.72;;;24.84;50.23
45071;BME280;30836;48.906;9.140;2023-07-28T00:28:09;978.70;;;24.83;50.24
45071;BME280;30836;48.906;9.140;2023-07-28T00:29:09;978.70;;;24.81;50.32
45071;BME280;30836;48.906;9.140;2023-07-28T00:30:10;978.70;;;24.77;50.58
45071;BME280;30836;48.906;9.140;2023-07-28T00:31:11;978.68;;;24.72;50.52
45071;BME280;30836;48.906;9.140;2023-07-28T00:32:12;978.64;;;24.70;50.37
45071;BME280;30836;48.906;9.140;2023-07-28T00:33:12;978.66;;;24.69;50.52
45071;BME280;30836;48.906;9.140;2023-07-28T00:34:12;978.62;;;24.68;50.45
45071;BME280;30836;48.906;9.140;2023-07-28T00:35:13;978.60;;;24.70;50.36
45071;BME280;30836;48.906;9.140;2023-07-28T00:36:13;978.62;;;24.70;50.46
45071;BME280;30836;48.906;9.140;2023-07-28T00:37:14;978.58;;;24.70;50.52
45071;BME280;30836;48.906;9.140;2023-07-28T00:38:14;978.56;;;24.69;50.47
45071;BME280;30836;48.906;9.140;2023-07-28T00:39:15;978.58;;;24.70;50.35
45071;BME280;30836;48.906;9.140;2023-07-28T00:40:15;978.58;;;24.70;50.36
45071;BME280;30836;48.906;9.140;2023-07-28T00:41:15;978.64;;;24.71;50.26
45071;BME280;30836;48.906;9.140;2023-07-28T00:42:16;978.58;;;24.71;50.27
45071;BME280;30836;48.906;9.140;2023-07-28T00:43:16;978.58;;;24.71;50.26
45071;BME280;30836;48.906;9.140;2023-07-28T00:44:17;978.60;;;24.71;50.28
45071;BME280;30836;48.906;9.140;2023-07-28T00:45:17;978.62;;;24.68;50.59
45071;BME280;30836;48.906;9.140;2023-07-28T00:46:18;978.64;;;24.63;50.41
45071;BME280;30836;48.906;9.140;2023-07-28T00:47:19;978.68;;;24.63;50.46
45071;BME280;30836;48.906;9.140;2023-07-28T00:48:19;978.70;;;24.62;50.42
45071;BME280;30836;48.906;9.140;2023-07-28T00:49:20;978.72;;;24.56;50.72
45071;BME280;30836;48.906;9.140;2023-07-28T00:50:21;978.74;;;24.43;51.15
45071;BME280;30836;48.906;9.140;2023-07-28T00:51:21;978.74;;;24.25;52.10
45071;BME280;30836;48.906;9.140;2023-07-28T00:52:22;978.76;;;24.05;52.49
45071;BME280;30836;48.906;9.140;2023-07-28T00:53:23;978.76;;;23.93;52.52
45071;BME280;30836;48.906;9.140;2023-07-28T00:54:24;978.76;;;23.85;52.40
45071;BME280;30836;48.906;9.140;2023-07-28T00:55:24;978.78;;;23.82;52.32
45071;BME280;30836;48.906;9.140;2023-07-28T00:56:25;978.78;;;23.80;52.43
45071;BME280;30836;48.906;9.140;2023-07-28T00:57:27;978.78;;;23.80;52.28
45071;BME280;30836;48.906;9.140;2023-07-28T00:58:27;978.82;;;23.85;52.00
45071;BME280;30836;48.906;9.140;2023-07-28T00:59:28;978.84;;;23.89;52.08
45071;BME280;30836;48.906;9.140;2023-07-28T01:00:29;978.84;;;23.89;52.08
45071;BME280;30836;48.906;9.140;2023-07-28T01:01:29;978.80;;;23.92;52.26
45071;BME280;30836;48.906;9.140;2023-07-28T01:02:30;978.78;;;23.98;52.16
45071;BME280;30836;48.906;9.140;2023-07-28T01:03:30;978.80;;;24.05;52.03
45071;BME280;30836;48.906;9.140;2023-07-28T01:04:31;978.78;;;24.12;51.93
45071;BME280;30836;48.906;9.140;2023-07-28T01:05:33;978.82;;;24.17;51.95
45071;BME280;30836;48.906;9.140;2023-07-28T01:07:49;978.84;;;24.25;51.70
45071;BME280;30836;48.906;9.140;2023-07-28T01:08:56;978.88;;;24.30;51.33
45071;BME280;30836;48.906;9.140;2023-07-28T01:10:05;978.88;;;24.43;50.80
45071;BME280;30836;48.906;9.140;2023-07-28T01:11:10;978.90;;;24.64;50.21
45071;BME280;30836;48.906;9.140;2023-07-28T01:12:10;978.88;;;24.84;49.69
45071;BME280;30836;48.906;9.140;2023-07-28T01:13:11;978.88;;;25.00;49.39
45071;BME280;30836;48.906;9.140;2023-07-28T01:14:11;978.90;;;25.12;49.07
45071;BME280;30836;48.906;9.140;2023-07-28T01:15:12;978.88;;;25.21;48.90
45071;BME280;30836;48.906;9.140;2023-07-28T01:16:12;978.84;;;25.31;48.77
45071;BME280;30836;48.906;9.140;2023-07-28T01:17:12;978.86;;;25.41;48.45
45071;BME280;30836;48.906;9.140;2023-07-28T01:17:22;978.88;;;25.52;48.43
45071;BME280;30836;48.906;9.140;2023-07-28T01:18:23;978.88;;;25.53;48.35
45071;BME280;30836;48.906;9.140;2023-07-28T01:19:23;978.84;;;25.50;48.54
45071;BME280;30836;48.906;9.140;2023-07-28T01:20:24;978.80;;;25.39;48.96
45071;BME280;30836;48.906;9.140;2023-07-28T01:20:34;978.78;;;25.18;48.97
45071;BME280;30836;48.906;9.140;2023-07-28T01:21:38;978.80;;;25.18;49.05
45071;BME280;30836;48.906;9.140;2023-07-28T01:23:57;978.78;;;25.20;49.00
45071;BME280;30836;48.906;9.140;2023-07-28T01:26:15;978.80;;;25.21;49.19
45071;BME280;30836;48.906;9.140;2023-07-28T01:26:31;978.76;;;25.09;49.19
45071;BME280;30836;48.906;9.140;2023-07-28T01:27:34;978.78;;;25.09;49.31
45071;BME280;30836;48.906;9.140;2023-07-28T01:28:37;978.80;;;25.06;49.47
45071;BME280;30836;48.906;9.140;2023-07-28T01:29:39;978.76;;;25.01;49.64
45071;BME280;30836;48.906;9.140;2023-07-28T01:30:40;978.76;;;24.95;49.79
45071;BME280;30836;48.906;9.140;2023-07-28T01:31:41;978.76;;;24.85;50.13
45071;BME280;30836;48.906;9.140;2023-07-28T01:32:41;978.74;;;24.74;50.30
45071;BME280;30836;48.906;9.140;2023-07-28T01:33:42;978.74;;;24.65;50.36
45071;BME280;30836;48.906;9.140;2023-07-28T01:34:42;978.74;;;24.57;50.55
45071;BME280;30836;48.906;9.140;2023-07-28T01:35:42;978.72;;;24.50;50.63
45071;BME280;30836;48.906;9.140;2023-07-28T01:36:43;978.72;;;24.46;50.68
45071;BME280;30836;48.906;9.140;2023-07-28T01:37:43;978.66;;;24.43;50.69
45071;BME280;30836;48.906;9.140;2023-07-28T01:38:44;978.64;;;24.41;50.66
45071;BME280;30836;48.906;9.140;2023-07-28T01:39:44;978.64;;;24.38;50.68
45071;BME280;30836;48.906;9.140;2023-07-28T01:40:45;978.64;;;24.34;50.72
45071;BME280;30836;48.906;9.140;2023-07-28T01:41:45;978.62;;;24.33;50.71
45071;BME280;30836;48.906;9.140;2023-07-28T01:42:46;978.60;;;24.32;50.78
45071;BME280;30836;48.906;9.140;2023-07-28T01:43:46;978.60;;;24.29;50.85
45071;BME280;30836;48.906;9.140;2023-07-28T01:44:47;978.60;;;24.28;50.84
45071;BME280;30836;48.906;9.140;2023-07-28T01:45:47;978.62;;;24.28;50.80
45071;BME280;30836;48.906;9.140;2023-07-28T01:46:47;978.64;;;24.27;50.81
45071;BME280;30836;48.906;9.140;2023-07-28T01:47:48;978.64;;;24.25;50.85
45071;BME280;30836;48.906;9.140;2023-07-28T01:48:48;978.60;;;24.23;50.88
45071;BME280;30836;48.906;9.140;2023-07-28T01:49:49;978.60;;;24.21;50.89
45071;BME280;30836;48.906;9.140;2023-07-28T01:50:49;978.62;;;24.19;50.92
45071;BME280;30836;48.906;9.140;2023-07-28T01:51:50;978.64;;;24.18;50.91
45071;BME280;30836;48.906;9.140;2023-07-28T01:52:50;978.66;;;24.18;50.90
45071;BME280;30836;48.906;9.140;2023-07-28T01:53:50;978.66;;;24.17;51.02
45071;BME280;30836;48.906;9.140;2023-07-28T01:54:51;978.64;;;24.18;50.96
45071;BME280;30836;48.906;9.140;2023-07-28T01:55:51;978.64;;;24.18;51.06
45071;BME280;30836;48.906;9.140;2023-07-28T01:56:52;978.62;;;24.19;50.96
45071;BME280;30836;48.906;9.140;2023-07-28T01:57:56;978.62;;;24.20;50.93
45071;BME280;30836;48.906;9.140;2023-07-28T01:58:58;978.60;;;24.22;50.93
45071;BME280;30836;48.906;9.140;2023-07-28T01:59:58;978.56;;;24.24;50.88
45071;BME280;30836;48.906;9.140;2023-07-28T02:00:59;978.58;;;24.28;50.82
45071;BME280;30836;48.906;9.140;2023-07-28T02:01:59;978.58;;;24.33;50.81
45071;BME280;30836;48.906;9.140;2023-07-28T02:03:00;978.56;;;24.35;51.01
45071;BME280;30836;48.906;9.140;2023-07-28T02:04:00;978.56;;;24.36;50.87
45071;BME280;30836;48.906;9.140;2023-07-28T02:05:00;978.56;;;24.36;50.74
45071;BME280;30836;48.906;9.140;2023-07-28T02:06:01;978.56;;;24.36;50.62
45071;BME280;30836;48.906;9.140;2023-07-28T02:07:01;978.60;;;24.36;50.51
45071;BME280;30836;48.906;9.140;2023-07-28T02:08:02;978.60;;;24.37;50.44
45071;BME280;30836;48.906;9.140;2023-07-28T02:09:02;978.60;;;24.38;50.36
45071;BME280;30836;48.906;9.140;2023-07-28T02:10:03;978.60;;;24.37;50.45
45071;BME280;30836;48.906;9.140;2023-07-28T02:11:03;978.58;;;24.36;50.49
45071;BME280;30836;48.906;9.140;2023-07-28T02:12:04;978.58;;;24.36;50.51
45071;BME280;30836;48.906;9.140;2023-07-28T02:13:05;978.58;;;24.36;50.48
45071;BME280;30836;48.906;9.140;2023-07-28T02:14:05;978.60;;;24.36;50.48
45071;BME280;30836;48.906;9.140;2023-07-28T02:15:06;978.60;;;24.38;50.41
45071;BME280;30836;48.906;9.140;2023-07-28T02:16:07;978.60;;;24.42;50.31
45071;BME280;30836;48.906;9.140;2023-07-28T02:17:07;978.60;;;24.52;49.94
45071;BME280;30836;48.906;9.140;2023-07-28T02:18:08;978.60;;;24.67;49.60
45071;BME280;30836;48.906;9.140;2023-07-28T02:19:08;978.60;;;24.83;49.25
45071;BME280;30836;48.906;9.140;2023-07-28T02:20:09;978.62;;;24.99;48.75
45071;BME280;30836;48.906;9.140;2023-07-28T02:21:09;978.62;;;25.13;48.51
45071;BME280;30836;48.906;9.140;2023-07-28T02:22:10;978.60;;;25.24;48.33
45071;BME280;30836;48.906;9.140;2023-07-28T02:23:10;978.58;;;25.33;48.04
45071;BME280;30836;48.906;9.140;2023-07-28T02:24:11;978.58;;;25.41;47.93
45071;BME280;30836;48.906;9.140;2023-07-28T02:25:11;978.62;;;25.49;47.72
45071;BME280;30836;48.906;9.140;2023-07-28T02:26:11;978.62;;;25.56;47.55
45071;BME280;30836;48.906;9.140;2023-07-28T02:27:12;978.62;;;25.59;47.56
45071;BME280;30836;48.906;9.140;2023-07-28T02:28:12;978.58;;;25.63;47.43
45071;BME280;30836;48.906;9.140;2023-07-28T02:29:13;978.60;;;25.69;47.42
45071;BME280;30836;48.906;9.140;2023-07-28T02:30:13;978.58;;;25.73;47.44
45071;BME280;30836;48.906;9.140;2023-07-28T02:31:14;978.62;;;25.77;47.61
45071;BME280;30836;48.906;9.140;2023-07-28T02:32:14;978.64;;;25.80;47.64
45071;BME280;30836;48.906;9.140;2023-07-28T02:33:14;978.64;;;25.83;47.58
45071;BME280;30836;48.906;9.140;2023-07-28T02:34:15;978.64;;;25.85;47.57
45071;BME280;30836;48.906;9.140;2023-07-28T02:35:15;978.64;;;25.86;47.56
45071;BME280;30836;48.906;9.140;2023-07-28T02:36:16;978.66;;;25.87;47.57
45071;BME280;30836;48.906;9.140;2023-07-28T02:37:16;978.66;;;25.88;47.54
45071;BME280;30836;48.906;9.140;2023-07-28T02:38:17;978.64;;;25.89;47.51
45071;BME280;30836;48.906;9.140;2023-07-28T02:39:17;978.64;;;25.90;47.49
45071;BME280;30836;48.906;9.140;2023-07-28T02:40:17;978.66;;;25.91;47.46
45071;BME280;30836;48.906;9.140;2023-07-28T02:41:18;978.72;;;25.93;47.42
45071;BME280;30836;48.906;9.140;2023-07-28T02:42:18;978.76;;;25.95;47.46
45071;BME280;30836;48.906;9.140;2023-07-28T02:43:19;978.76;;;25.97;47.40
45071;BME280;30836;48.906;9.140;2023-07-28T02:44:19;978.74;;;25.98;47.31
45071;BME280;30836;48.906;9.140;2023-07-28T02:45:20;978.68;;;25.99;47.35
45071;BME280;30836;48.906;9.140;2023-07-28T02:46:20;978.70;;;26.01;47.35
45071;BME280;30836;48.906;9.140;2023-07-28T02:47:20;978.72;;;26.02;47.37
45071;BME280;30836;48.906;9.140;2023-07-28T02:48:21;978.68;;;26.02;47.42
45071;BME280;30836;48.906;9.140;2023-07-28T02:49:21;978.66;;;26.03;47.34
45071;BME280;30836;48.906;9.140;2023-07-28T02:50:22;978.66;;;26.03;47.36
45071;BME280;30836;48.906;9.140;2023-07-28T02:51:22;978.74;;;26.04;47.36
45071;BME280;30836;48.906;9.140;2023-07-28T02:52:23;978.78;;;26.04;47.47
45071;BME280;30836;48.906;9.140;2023-07-28T02:53:23;978.78;;;26.02;47.51
45071;BME280;30836;48.906;9.140;2023-07-28T02:54:24;978.74;;;26.00;47.56
45071;BME280;30836;48.906;9.140;2023-07-28T02:55:24;978.70;;;25.98;47.61
45071;BME280;30836;48.906;9.140;2023-07-28T02:56:25;978.72;;;25.98;47.69
45071;BME280;30836;48.906;9.140;2023-07-28T02:57:25;978.80;;;25.98;47.63
45071;BME280;30836;48.906;9.140;2023-07-28T02:58:26;978.84;;;25.99;47.51
45071;BME280;30836;48.906;9.140;2023-07-28T02:59:26;978.84;;;25.97;47.35
45071;BME280;30836;48.906;9.140;2023-07-28T03:00:27;978.78;;;25.93;47.53
45071;BME280;30836;48.906;9.140;2023-07-28T03:01:29;978.80;;;25.90;47.53
45071;BME280;30836;48.906;9.140;2023-07-28T03:02:30;978.86;;;25.89;47.56
45071;BME280;30836;48.906;9.140;2023-07-28T03:03:30;978.92;;;25.88;47.49
45071;BME280;30836;48.906;9.140;2023-07-28T03:04:30;978.94;;;25.87;47.58
45071;BME280;30836;48.906;9.140;2023-07-28T03:05:31;978.94;;;25.84;47.53
45071;BME280;30836;48.906;9.140;2023-07-28T03:06:32;978.98;;;25.82;47.50
45071;BME280;30836;48.906;9.140;2023-07-28T03:07:32;979.00;;;25.81;47.52
45071;BME280;30836;48.906;9.140;2023-07-28T03:08:32;979.02;;;25.82;47.58
45071;BME280;30836;48.906;9.140;2023-07-28T03:09:33;979.07;;;25.83;47.67
45071;BME280;30836;48.906;9.140;2023-07-28T03:10:33;979.09;;;25.85;47.57
45071;BME280;30836;48.906;9.140;2023-07-28T03:11:34;979.13;;;25.86;47.61
45071;BME280;30836;48.906;9.140;2023-07-28T03:12:34;979.17;;;25.85;47.63
45071;BME280;30836;48.906;9.140;2023-07-28T03:13:35;979.19;;;25.85;47.76
45071;BME280;30836;48.906;9.140;2023-07-28T03:14:35;979.19;;;25.85;47.84
45071;BME280;30836;48.906;9.140;2023-07-28T03:15:35;979.19;;;25.86;47.68
45071;BME280;30836;48.906;9.140;2023-07-28T03:16:36;979.21;;;25.87;47.55
45071;BME280;30836;48.906;9.140;2023-07-28T03:17:36;979.23;;;25.89;47.49
45071;BME280;30836;48.906;9.140;2023-07-28T03:18:37;979.23;;;25.91;47.46
45071;BME280;30836;48.906;9.140;2023-07-28T03:19:37;979.27;;;25.92;47.37
45071;BME280;30836;48.906;9.140;2023-07-28T03:20:38;979.25;;;25.93;47.40
45071;BME280;30836;48.906;9.140;2023-07-28T03:21:38;979.27;;;25.92;47.45
45071;BME280;30836;48.906;9.140;2023-07-28T03:22:39;979.31;;;25.91;47.60
45071;BME280;30836;48.906;9.140;2023-07-28T03:23:39;979.37;;;25.89;47.56
45071;BME280;30836;48.906;9.140;2023-07-28T03:24:39;979.39;;;25.89;47.46
45071;BME280;30836;48.906;9.140;2023-07-28T03:25:40;979.45;;;25.89;47.49
45071;BME280;30836;48.906;9.140;2023-07-28T03:26:40;979.45;;;25.89;47.46
45071;BME280;30836;48.906;9.140;2023-07-28T03:27:41;979.47;;;25.89;47.47
45071;BME280;30836;48.906;9.140;2023-07-28T03:28:41;979.55;;;25.89;47.49
45071;BME280;30836;48.906;9.140;2023-07-28T03:29:42;979.47;;;25.90;47.51
45071;BME280;30836;48.906;9.140;2023-07-28T03:30:43;979.47;;;25.90;47.51
45071;BME280;30836;48.906;9.140;2023-07-28T03:31:43;979.47;;;25.91;47.45
45071;BME280;30836;48.906;9.140;2023-07-28T03:32:44;979.45;;;25.93;47.44
45071;BME280;30836;48.906;9.140;2023-07-28T03:33:44;979.45;;;25.95;47.37
45071;BME280;30836;48.906;9.140;2023-07-28T03:34:45;979.43;;;25.97;47.30
45071;BME280;30836;48.906;9.140;2023-07-28T03:35:45;979.43;;;25.99;47.22
45071;BME280;30836;48.906;9.140;2023-07-28T03:36:45;979.43;;;26.01;47.18
45071;BME280;30836;48.906;9.140;2023-07-28T03:37:46;979.47;;;26.03;47.14
45071;BME280;30836;48.906;9.140;2023-07-28T03:38:46;979.55;;;26.05;47.08
45071;BME280;30836;48.906;9.140;2023-07-28T03:39:47;979.57;;;26.07;46.97
45071;BME280;30836;48.906;9.140;2023-07-28T03:40:47;979.59;;;26.08;46.96
45071;BME280;30836;48.906;9.140;2023-07-28T03:41:48;979.61;;;26.07;47.06
45071;BME280;30836;48.906;9.140;2023-07-28T03:42:48;979.63;;;26.05;47.12
45071;BME280;30836;48.906;9.140;2023-07-28T03:43:49;979.65;;;26.04;47.00
45071;BME280;30836;48.906;9.140;2023-07-28T03:44:49;979.67;;;26.03;47.07
45071;BME280;30836;48.906;9.140;2023-07-28T03:45:50;979.73;;;26.01;47.04
45071;BME280;30836;48.906;9.140;2023-07-28T03:46:51;979.75;;;25.99;47.17
45071;BME280;30836;48.906;9.140;2023-07-28T03:47:51;979.75;;;25.95;47.40
45071;BME280;30836;48.906;9.140;2023-07-28T03:48:51;979.78;;;25.90;47.51
45071;BME280;30836;48.906;9.140;2023-07-28T03:49:52;979.80;;;25.87;47.61
45071;BME280;30836;48.906;9.140;2023-07-28T03:50:52;979.80;;;25.84;47.87
45071;BME280;30836;48.906;9.140;2023-07-28T03:51:53;979.77;;;25.79;48.08
45071;BME280;30836;48.906;9.140;2023-07-28T03:52:53;979.77;;;25.75;48.17
45071;BME280;30836;48.906;9.140;2023-07-28T03:53:54;979.73;;;25.73;48.07
45071;BME280;30836;48.906;9.140;2023-07-28T03:54:54;979.71;;;25.72;48.04
45071;BME280;30836;48.906;9.140;2023-07-28T03:55:54;979.69;;;25.71;48.39
45071;BME280;30836;48.906;9.140;2023-07-28T03:56:55;979.69;;;25.68;48.37
45071;BME280;30836;48.906;9.140;2023-07-28T03:57:55;979.69;;;25.68;48.24
45071;BME280;30836;48.906;9.140;2023-07-28T03:58:56;979.65;;;25.67;48.26
45071;BME280;30836;48.906;9.140;2023-07-28T03:59:56;979.67;;;25.67;48.32
45071;BME280;30836;48.906;9.140;2023-07-28T04:00:57;979.65;;;25.69;48.25
45071;BME280;30836;48.906;9.140;2023-07-28T04:01:57;979.63;;;25.71;48.27
45071;BME280;30836;48.906;9.140;2023-07-28T04:02:57;979.59;;;25.71;48.14
45071;BME280;30836;48.906;9.140;2023-07-28T04:03:58;979.55;;;25.72;48.04
45071;BME280;30836;48.906;9.140;2023-07-28T04:04:58;979.45;;;25.74;47.96
45071;BME280;30836;48.906;9.140;2023-07-28T04:05:59;979.43;;;25.77;47.86
45071;BME280;30836;48.906;9.140;2023-07-28T04:06:59;979.45;;;25.79;47.86
45071;BME280;30836;48.906;9.140;2023-07-28T04:08:00;979.43;;;25.80;47.98
45071;BME280;30836;48.906;9.140;2023-07-28T04:09:00;979.45;;;25.81;47.94
45071;BME280;30836;48.906;9.140;2023-07-28T04:10:00;979.43;;;25.84;47.78
45071;BME280;30836;48.906;9.140;2023-07-28T04:11:01;979.43;;;25.85;47.72
45071;BME280;30836;48.906;9.140;2023-07-28T04:12:01;979.45;;;25.87;47.62
45071;BME280;30836;48.906;9.140;2023-07-28T04:13:02;979.45;;;25.88;47.58
45071;BME280;30836;48.906;9.140;2023-07-28T04:14:02;979.43;;;25.90;47.52
45071;BME280;30836;48.906;9.140;2023-07-28T04:15:04;979.43;;;25.91;47.53
45071;BME280;30836;48.906;9.140;2023-07-28T04:16:04;979.41;;;25.93;47.52
45071;BME280;30836;48.906;9.140;2023-07-28T04:17:05;979.43;;;25.95;47.50
45071;BME280;30836;48.906;9.140;2023-07-28T04:18:05;979.41;;;25.97;47.41
45071;BME280;30836;48.906;9.140;2023-07-28T04:19:06;979.41;;;25.99;47.34
45071;BME280;30836;48.906;9.140;2023-07-28T04:20:06;979.43;;;26.01;47.36
45071;BME280;30836;48.906;9.140;2023-07-28T04:21:07;979.41;;;26.04;47.34
45071;BME280;30836;48.906;9.140;2023-07-28T04:22:08;979.39;;;26.06;47.31
45071;BME280;30836;48.906;9.140;2023-07-28T04:23:08;979.39;;;26.08;47.27
45071;BME280;30836;48.906;9.140;2023-07-28T04:24:08;979.39;;;26.10;47.25
45071;BME280;30836;48.906;9.140;2023-07-28T04:25:09;979.39;;;26.12;47.22
45071;BME280;30836;48.906;9.140;2023-07-28T04:26:10;979.37;;;26.13;47.24
45071;BME280;30836;48.906;9.140;2023-07-28T04:27:10;979.37;;;26.15;47.53
45071;BME280;30836;48.906;9.140;2023-07-28T04:28:11;979.37;;;26.17;47.49
45071;BME280;30836;48.906;9.140;2023-07-28T04:29:11;979.39;;;26.19;47.45
45071;BME280;30836;48.906;9.140;2023-07-28T04:30:12;979.39;;;26.20;47.40
45071;BME280;30836;48.906;9.140;2023-07-28T04:31:12;979.39;;;26.21;47.37
45071;BME280;30836;48.906;9.140;2023-07-28T04:32:13;979.37;;;26.21;47.43
45071;BME280;30836;48.906;9.140;2023-07-28T04:33:13;979.35;;;26.22;47.47
45071;BME280;30836;48.906;9.140;2023-07-28T04:34:14;979.37;;;26.22;47.30
45071;BME280;30836;48.906;9.140;2023-07-28T04:35:14;979.37;;;26.21;47.35
45071;BME280;30836;48.906;9.140;2023-07-28T04:36:14;979.35;;;26.22;47.33
45071;BME280;30836;48.906;9.140;2023-07-28T04:37:15;979.35;;;26.22;47.23
45071;BME280;30836;48.906;9.140;2023-07-28T04:38:15;979.33;;;26.21;47.30
45071;BME280;30836;48.906;9.140;2023-07-28T04:39:16;979.31;;;26.20;47.35
45071;BME280;30836;48.906;9.140;2023-07-28T04:40:16;979.31;;;26.21;47.37
45071;BME280;30836;48.906;9.140;2023-07-28T04:41:17;979.33;;;26.21;47.46
45071;BME280;30836;48.906;9.140;2023-07-28T04:42:17;979.35;;;26.22;47.61
45071;BME280;30836;48.906;9.140;2023-07-28T04:43:18;979.33;;;26.23;47.72
45071;BME280;30836;48.906;9.140;2023-07-28T04:44:18;979.31;;;26.23;47.81
45071;BME280;30836;48.906;9.140;2023-07-28T04:45:18;979.29;;;26.23;47.95
45071;BME280;30836;48.906;9.140;2023-07-28T04:46:19;979.31;;;26.24;47.97
45071;BME280;30836;48.906;9.140;2023-07-28T04:47:19;979.33;;;26.25;47.96
45071;BME280;30836;48.906;9.140;2023-07-28T04:48:20;979.35;;;26.26;47.93
45071;BME280;30836;48.906;9.140;2023-07-28T04:49:20;979.33;;;26.27;48.00
45071;BME280;30836;48.906;9.140;2023-07-28T04:50:21;979.39;;;26.28;48.08
45071;BME280;30836;48.906;9.140;2023-07-28T04:51:21;979.37;;;26.29;48.13
45071;BME280;30836;48.906;9.140;2023-07-28T04:52:21;979.39;;;26.30;48.16
45071;BME280;30836;48.906;9.140;2023-07-28T04:53:22;979.41;;;26.31;48.12
45071;BME280;30836;48.906;9.140;2023-07-28T04:54:22;979.43;;;26.32;48.01
45071;BME280;30836;48.906;9.140;2023-07-28T04:55:23;979.45;;;26.33;47.96
45071;BME280;30836;48.906;9.140;2023-07-28T04:56:23;979.45;;;26.33;47.86
45071;BME280;30836;48.906;9.140;2023-07-28T04:57:23;979.45;;;26.35;47.76
45071;BME280;30836;48.906;9.140;2023-07-28T04:58:24;979.45;;;26.35;47.71
45071;BME280;30836;48.906;9.140;2023-07-28T04:59:24;979.45;;;26.34;47.84
45071;BME280;30836;48.906;9.140;2023-07-28T05:00:25;979.45;;;26.32;47.88
45071;BME280;30836;48.906;9.140;2023-07-28T05:01:25;979.47;;;26.31;48.04
45071;BME280;30836;48.906;9.140;2023-07-28T05:02:26;979.45;;;26.30;48.06
45071;BME280;30836;48.906;9.140;2023-07-28T05:03:26;979.41;;;26.31;48.13
45071;BME280;30836;48.906;9.140;2023-07-28T05:04:27;979.41;;;26.31;48.10
45071;BME280;30836;48.906;9.140;2023-07-28T05:05:28;979.45;;;26.32;48.13
45071;BME280;30836;48.906;9.140;2023-07-28T05:06:29;979.47;;;26.32;48.19
45071;BME280;30836;48.906;9.140;2023-07-28T05:07:29;979.57;;;26.26;48.61
45071;BME280;30836;48.906;9.140;2023-07-28T05:08:30;979.59;;;26.12;49.12
45071;BME280;30836;48.906;9.140;2023-07-28T05:09:31;979.61;;;25.95;49.67
45071;BME280;30836;48.906;9.140;2023-07-28T05:10:31;979.61;;;25.77;50.14
45071;BME280;30836;48.906;9.140;2023-07-28T05:11:32;979.59;;;25.62;50.47
45071;BME280;30836;48.906;9.140;2023-07-28T05:12:32;979.59;;;25.49;50.79
45071;BME280;30836;48.906;9.140;2023-07-28T05:13:32;979.59;;;25.39;51.01
45071;BME280;30836;48.906;9.140;2023-07-28T05:14:33;979.61;;;25.32;51.18
45071;BME280;30836;48.906;9.140;2023-07-28T05:15:33;979.57;;;25.27;51.43
45071;BME280;30836;48.906;9.140;2023-07-28T05:16:34;979.57;;;25.23;51.53
45071;BME280;30836;48.906;9.140;2023-07-28T05:17:35;979.55;;;25.21;51.61
45071;BME280;30836;48.906;9.140;2023-07-28T05:18:35;979.55;;;25.19;51.69
45071;BME280;30836;48.906;9.140;2023-07-28T05:19:35;979.47;;;25.18;51.67
45071;BME280;30836;48.906;9.140;2023-07-28T05:20:36;979.55;;;25.16;51.54
45071;BME280;30836;48.906;9.140;2023-07-28T05:21:36;979.59;;;25.14;51.45
45071;BME280;30836;48.906;9.140;2023-07-28T05:22:37;979.59;;;25.13;51.43
45071;BME280;30836;48.906;9.140;2023-07-28T05:23:37;979.59;;;25.11;51.44
45071;BME280;30836;48.906;9.140;2023-07-28T05:24:37;979.63;;;25.09;51.37
45071;BME280;30836;48.906;9.140;2023-07-28T05:25:38;979.65;;;25.07;51.38
45071;BME280;30836;48.906;9.140;2023-07-28T05:26:38;979.67;;;25.05;51.50
45071;BME280;30836;48.906;9.140;2023-07-28T05:27:39;979.67;;;25.03;51.60
45071;BME280;30836;48.906;9.140;2023-07-28T05:28:40;979.69;;;25.02;51.62
45071;BME280;30836;48.906;9.140;2023-07-28T05:29:40;979.67;;;25.04;51.63
45071;BME280;30836;48.906;9.140;2023-07-28T05:30:41;979.67;;;25.04;51.69
45071;BME280;30836;48.906;9.140;2023-07-28T05:31:41;979.71;;;25.02;51.84